sensor_id;sensor_type;location;lat;lon;timestamp;P1;durP1;ratioP1;P2;durP2;ratioP2
12908;SDS011;6522;49.622;6.126;2023-02-04T00:00:24;17.05;;;9.95;;
12908;SDS011;6522;49.622;6.126;2023-02-04T00:03:10;15.10;;;9.50;;
12908;SDS011;6522;49.622;6.126;2023-02-04T00:05:57;12.05;;;8.20;;
12908;SDS011;6522;49.622;6.126;2023-02-04T00:08:44;12.80;;;8.32;;
12908;SDS011;6522;49.622;6.126;2023-02-04T00:11:31;15.65;;;10.00;;
12908;SDS011;6522;49.622;6.126;2023-02-04T00:14:17;14.43;;;8.68;;
12908;SDS011;6522;49.622;6.126;2023-02-04T00:17:05;12.55;;;8.90;;
12908;SDS011;6522;49.622;6.126;2023-02-04T00:19:51;12.20;;;8.13;;
12908;SDS011;6522;49.622;6.126;2023-02-04T00:22:38;12.32;;;8.88;;
12908;SDS011;6522;49.622;6.126;2023-02-04T00:25:25;13.75;;;8.48;;
12908;SDS011;6522;49.622;6.126;2023-02-04T00:28:11;12.20;;;8.23;;
12908;SDS011;6522;49.622;6.126;2023-02-04T00:30:58;11.77;;;7.75;;
12908;SDS011;6522;49.622;6.126;2023-02-04T00:33:45;13.02;;;8.90;;
12908;SDS011;6522;49.622;6.126;2023-02-04T00:36:32;11.48;;;8.45;;
12908;SDS011;6522;49.622;6.126;2023-02-04T00:39:18;13.88;;;9.77;;
12908;SDS011;6522;49.622;6.126;2023-02-04T00:42:05;10.52;;;8.02;;
12908;SDS011;6522;49.622;6.126;2023-02-04T00:44:52;14.07;;;9.30;;
12908;SDS011;6522;49.622;6.126;2023-02-04T00:47:38;12.18;;;7.75;;
12908;SDS011;6522;49.622;6.126;2023-02-04T00:50:25;11.65;;;8.18;;
12908;SDS011;6522;49.622;6.126;2023-02-04T00:53:11;11.88;;;8.25;;
12908;SDS011;6522;49.622;6.126;2023-02-04T00:55:58;9.15;;;7.37;;
12908;SDS011;6522;49.622;6.126;2023-02-04T00:58:45;9.50;;;8.00;;
12908;SDS011;6522;49.622;6.126;2023-02-04T01:01:32;12.70;;;8.07;;
12908;SDS011;6522;49.622;6.126;2023-02-04T01:04:18;10.52;;;8.60;;
12908;SDS011;6522;49.622;6.126;2023-02-04T01:07:05;13.25;;;8.88;;
12908;SDS011;6522;49.622;6.126;2023-02-04T01:09:52;11.20;;;7.43;;
12908;SDS011;6522;49.622;6.126;2023-02-04T01:12:39;11.40;;;8.07;;
12908;SDS011;6522;49.622;6.126;2023-02-04T01:15:26;10.90;;;7.30;;
12908;SDS011;6522;49.622;6.126;2023-02-04T01:18:13;10.48;;;7.78;;
12908;SDS011;6522;49.622;6.126;2023-02-04T01:21:00;11.10;;;7.40;;
12908;SDS011;6522;49.622;6.126;2023-02-04T01:23:47;10.90;;;7.35;;
12908;SDS011;6522;49.622;6.126;2023-02-04T01:26:34;12.57;;;7.40;;
12908;SDS011;6522;49.622;6.126;2023-02-04T01:29:20;9.52;;;7.22;;
12908;SDS011;6522;49.622;6.126;2023-02-04T01:32:07;9.88;;;7.32;;
12908;SDS011;6522;49.622;6.126;2023-02-04T01:34:53;9.73;;;6.93;;
12908;SDS011;6522;49.622;6.126;2023-02-04T01:37:40;9.27;;;7.57;;
12908;SDS011;6522;49.622;6.126;2023-02-04T01:40:27;7.20;;;6.30;;
12908;SDS011;6522;49.622;6.126;2023-02-04T01:43:14;9.57;;;7.35;;
12908;SDS011;6522;49.622;6.126;2023-02-04T01:46:01;10.90;;;7.75;;
12908;SDS011;6522;49.622;6.126;2023-02-04T01:48:48;10.30;;;7.10;;
12908;SDS011;6522;49.622;6.126;2023-02-04T01:51:35;9.80;;;6.75;;
12908;SDS011;6522;49.622;6.126;2023-02-04T01:54:22;8.18;;;6.55;;
12908;SDS011;6522;49.622;6.126;2023-02-04T01:57:09;10.45;;;6.22;;
12908;SDS011;6522;49.622;6.126;2023-02-04T01:59:56;9.13;;;6.95;;
12908;SDS011;6522;49.622;6.126;2023-02-04T02:02:47;7.95;;;6.03;;
12908;SDS011;6522;49.622;6.126;2023-02-04T02:05:37;8.85;;;6.60;;
12908;SDS011;6522;49.622;6.126;2023-02-04T02:08:22;8.52;;;6.25;;
12908;SDS011;6522;49.622;6.126;2023-02-04T02:11:09;10.07;;;6.40;;
12908;SDS011;6522;49.622;6.126;2023-02-04T02:13:56;7.85;;;6.47;;
12908;SDS011;6522;49.622;6.126;2023-02-04T02:16:42;7.37;;;6.00;;
12908;SDS011;6522;49.622;6.126;2023-02-04T02:19:31;6.87;;;5.68;;
12908;SDS011;6522;49.622;6.126;2023-02-04T02:22:20;8.82;;;5.10;;
12908;SDS011;6522;49.622;6.126;2023-02-04T02:25:10;8.68;;;6.40;;
12908;SDS011;6522;49.622;6.126;2023-02-04T02:27:56;6.25;;;5.45;;
12908;SDS011;6522;49.622;6.126;2023-02-04T02:30:43;8.43;;;5.35;;
12908;SDS011;6522;49.622;6.126;2023-02-04T02:33:32;5.93;;;5.35;;
12908;SDS011;6522;49.622;6.126;2023-02-04T02:36:19;7.10;;;5.25;;
12908;SDS011;6522;49.622;6.126;2023-02-04T02:39:06;9.05;;;6.20;;
12908;SDS011;6522;49.622;6.126;2023-02-04T02:41:53;6.10;;;4.22;;
12908;SDS011;6522;49.622;6.126;2023-02-04T02:44:39;6.05;;;5.37;;
12908;SDS011;6522;49.622;6.126;2023-02-04T02:47:26;6.07;;;4.22;;
12908;SDS011;6522;49.622;6.126;2023-02-04T02:50:14;5.60;;;4.85;;
12908;SDS011;6522;49.622;6.126;2023-02-04T02:52:59;5.93;;;5.22;;
12908;SDS011;6522;49.622;6.126;2023-02-04T02:55:46;8.50;;;5.15;;
12908;SDS011;6522;49.622;6.126;2023-02-04T02:58:33;8.02;;;4.75;;
12908;SDS011;6522;49.622;6.126;2023-02-04T03:01:19;6.30;;;5.35;;
12908;SDS011;6522;49.622;6.126;2023-02-04T03:04:06;6.95;;;5.07;;
12908;SDS011;6522;49.622;6.126;2023-02-04T03:06:52;6.57;;;4.80;;
12908;SDS011;6522;49.622;6.126;2023-02-04T03:09:39;5.43;;;4.50;;
12908;SDS011;6522;49.622;6.126;2023-02-04T03:12:26;5.47;;;4.72;;
12908;SDS011;6522;49.622;6.126;2023-02-04T03:15:13;6.07;;;4.68;;
12908;SDS011;6522;49.622;6.126;2023-02-04T03:17:59;5.20;;;4.03;;
12908;SDS011;6522;49.622;6.126;2023-02-04T03:20:47;5.32;;;3.95;;
12908;SDS011;6522;49.622;6.126;2023-02-04T03:23:33;6.00;;;4.57;;
12908;SDS011;6522;49.622;6.126;2023-02-04T03:26:20;4.90;;;4.10;;
12908;SDS011;6522;49.622;6.126;2023-02-04T03:29:07;7.50;;;4.80;;
12908;SDS011;6522;49.622;6.126;2023-02-04T03:31:53;7.97;;;3.83;;
12908;SDS011;6522;49.622;6.126;2023-02-04T03:34:43;4.80;;;3.90;;
12908;SDS011;6522;49.622;6.126;2023-02-04T03:37:30;4.80;;;3.42;;
12908;SDS011;6522;49.622;6.126;2023-02-04T03:40:17;4.80;;;4.12;;
12908;SDS011;6522;49.622;6.126;2023-02-04T03:43:03;4.20;;;3.00;;
12908;SDS011;6522;49.622;6.126;2023-02-04T03:45:51;3.55;;;3.08;;
12908;SDS011;6522;49.622;6.126;2023-02-04T03:48:38;6.03;;;4.10;;
12908;SDS011;6522;49.622;6.126;2023-02-04T03:51:24;3.12;;;2.83;;
12908;SDS011;6522;49.622;6.126;2023-02-04T03:54:11;4.45;;;3.87;;
12908;SDS011;6522;49.622;6.126;2023-02-04T03:56:58;4.32;;;3.65;;
12908;SDS011;6522;49.622;6.126;2023-02-04T03:59:45;4.25;;;3.70;;
12908;SDS011;6522;49.622;6.126;2023-02-04T04:02:31;4.62;;;3.55;;
12908;SDS011;6522;49.622;6.126;2023-02-04T04:05:18;3.65;;;3.05;;
12908;SDS011;6522;49.622;6.126;2023-02-04T04:08:05;3.15;;;2.85;;
12908;SDS011;6522;49.622;6.126;2023-02-04T04:10:52;4.75;;;3.70;;
12908;SDS011;6522;49.622;6.126;2023-02-04T04:13:38;3.60;;;3.30;;
12908;SDS011;6522;49.622;6.126;2023-02-04T04:16:25;4.05;;;3.25;;
12908;SDS011;6522;49.622;6.126;2023-02-04T04:19:12;4.00;;;3.30;;
12908;SDS011;6522;49.622;6.126;2023-02-04T04:21:59;3.45;;;3.05;;
12908;SDS011;6522;49.622;6.126;2023-02-04T04:24:45;4.12;;;3.25;;
12908;SDS011;6522;49.622;6.126;2023-02-04T04:27:32;4.03;;;3.12;;
12908;SDS011;6522;49.622;6.126;2023-02-04T04:30:19;3.55;;;3.17;;
12908;SDS011;6522;49.622;6.126;2023-02-04T04:33:05;3.28;;;2.97;;
12908;SDS011;6522;49.622;6.126;2023-02-04T04:35:52;2.72;;;2.50;;
12908;SDS011;6522;49.622;6.126;2023-02-04T04:38:39;4.30;;;2.90;;
12908;SDS011;6522;49.622;6.126;2023-02-04T04:41:26;3.62;;;3.15;;
12908;SDS011;6522;49.622;6.126;2023-02-04T04:44:12;5.03;;;3.00;;
12908;SDS011;6522;49.622;6.126;2023-02-04T04:46:59;3.70;;;2.90;;
12908;SDS011;6522;49.622;6.126;2023-02-04T04:49:46;4.45;;;2.90;;
12908;SDS011;6522;49.622;6.126;2023-02-04T04:52:33;3.12;;;2.83;;
12908;SDS011;6522;49.622;6.126;2023-02-04T04:55:19;4.05;;;3.05;;
12908;SDS011;6522;49.622;6.126;2023-02-04T04:58:06;3.58;;;3.28;;
12908;SDS011;6522;49.622;6.126;2023-02-04T05:00:53;5.10;;;3.60;;
12908;SDS011;6522;49.622;6.126;2023-02-04T05:03:39;5.20;;;4.12;;
12908;SDS011;6522;49.622;6.126;2023-02-04T05:06:26;4.70;;;3.70;;
12908;SDS011;6522;49.622;6.126;2023-02-04T05:09:13;4.60;;;3.50;;
12908;SDS011;6522;49.622;6.126;2023-02-04T05:11:59;3.60;;;3.30;;
12908;SDS011;6522;49.622;6.126;2023-02-04T05:14:46;3.87;;;3.12;;
12908;SDS011;6522;49.622;6.126;2023-02-04T05:17:33;2.87;;;2.53;;
12908;SDS011;6522;49.622;6.126;2023-02-04T05:20:20;3.00;;;2.70;;
12908;SDS011;6522;49.622;6.126;2023-02-04T05:23:07;2.58;;;2.37;;
12908;SDS011;6522;49.622;6.126;2023-02-04T05:25:53;2.30;;;2.10;;
12908;SDS011;6522;49.622;6.126;2023-02-04T05:28:40;2.97;;;2.35;;
12908;SDS011;6522;49.622;6.126;2023-02-04T05:31:27;3.20;;;2.55;;
12908;SDS011;6522;49.622;6.126;2023-02-04T05:34:13;2.28;;;1.95;;
12908;SDS011;6522;49.622;6.126;2023-02-04T05:37:00;2.40;;;2.20;;
12908;SDS011;6522;49.622;6.126;2023-02-04T05:39:46;2.30;;;1.92;;
12908;SDS011;6522;49.622;6.126;2023-02-04T05:42:33;1.92;;;1.83;;
12908;SDS011;6522;49.622;6.126;2023-02-04T05:45:20;2.92;;;1.98;;
12908;SDS011;6522;49.622;6.126;2023-02-04T05:48:06;2.28;;;1.83;;
12908;SDS011;6522;49.622;6.126;2023-02-04T05:50:53;2.53;;;1.10;;
12908;SDS011;6522;49.622;6.126;2023-02-04T05:53:40;2.22;;;2.03;;
12908;SDS011;6522;49.622;6.126;2023-02-04T05:56:27;2.30;;;2.10;;
12908;SDS011;6522;49.622;6.126;2023-02-04T05:59:14;2.30;;;2.10;;
12908;SDS011;6522;49.622;6.126;2023-02-04T06:02:00;2.37;;;2.00;;
12908;SDS011;6522;49.622;6.126;2023-02-04T06:04:47;2.15;;;1.90;;
12908;SDS011;6522;49.622;6.126;2023-02-04T06:07:34;2.45;;;2.17;;
12908;SDS011;6522;49.622;6.126;2023-02-04T06:10:20;3.33;;;3.03;;
12908;SDS011;6522;49.622;6.126;2023-02-04T06:13:07;3.03;;;2.72;;
12908;SDS011;6522;49.622;6.126;2023-02-04T06:15:54;2.42;;;2.22;;
12908;SDS011;6522;49.622;6.126;2023-02-04T06:18:42;1.70;;;1.60;;
12908;SDS011;6522;49.622;6.126;2023-02-04T06:21:29;1.50;;;1.40;;
12908;SDS011;6522;49.622;6.126;2023-02-04T06:24:16;2.10;;;1.90;;
12908;SDS011;6522;49.622;6.126;2023-02-04T06:27:02;1.95;;;1.60;;
12908;SDS011;6522;49.622;6.126;2023-02-04T06:29:53;1.60;;;1.40;;
12908;SDS011;6522;49.622;6.126;2023-02-04T06:32:39;1.95;;;1.65;;
12908;SDS011;6522;49.622;6.126;2023-02-04T06:35:26;1.80;;;1.45;;
12908;SDS011;6522;49.622;6.126;2023-02-04T06:38:13;1.55;;;1.45;;
12908;SDS011;6522;49.622;6.126;2023-02-04T06:40:59;3.58;;;1.30;;
12908;SDS011;6522;49.622;6.126;2023-02-04T06:43:46;1.37;;;1.23;;
12908;SDS011;6522;49.622;6.126;2023-02-04T06:46:32;1.20;;;1.10;;
12908;SDS011;6522;49.622;6.126;2023-02-04T06:49:19;1.90;;;1.20;;
12908;SDS011;6522;49.622;6.126;2023-02-04T06:52:06;3.17;;;2.87;;
12908;SDS011;6522;49.622;6.126;2023-02-04T06:54:53;2.60;;;1.90;;
12908;SDS011;6522;49.622;6.126;2023-02-04T06:57:39;4.03;;;2.00;;
12908;SDS011;6522;49.622;6.126;2023-02-04T07:00:26;2.45;;;2.00;;
12908;SDS011;6522;49.622;6.126;2023-02-04T07:03:13;2.45;;;2.15;;
12908;SDS011;6522;49.622;6.126;2023-02-04T07:05:59;2.50;;;2.12;;
12908;SDS011;6522;49.622;6.126;2023-02-04T07:08:46;2.10;;;1.90;;
12908;SDS011;6522;49.622;6.126;2023-02-04T07:11:33;1.95;;;1.75;;
12908;SDS011;6522;49.622;6.126;2023-02-04T07:14:20;2.65;;;1.50;;
12908;SDS011;6522;49.622;6.126;2023-02-04T07:17:06;3.55;;;2.30;;
12908;SDS011;6522;49.622;6.126;2023-02-04T07:19:52;2.40;;;2.20;;
12908;SDS011;6522;49.622;6.126;2023-02-04T07:22:39;2.25;;;2.05;;
12908;SDS011;6522;49.622;6.126;2023-02-04T07:25:26;2.80;;;2.42;;
12908;SDS011;6522;49.622;6.126;2023-02-04T07:28:12;2.40;;;2.20;;
12908;SDS011;6522;49.622;6.126;2023-02-04T07:30:59;2.83;;;1.80;;
12908;SDS011;6522;49.622;6.126;2023-02-04T07:33:46;2.50;;;2.17;;
12908;SDS011;6522;49.622;6.126;2023-02-04T07:36:33;3.00;;;2.70;;
12908;SDS011;6522;49.622;6.126;2023-02-04T07:39:20;2.20;;;2.00;;
12908;SDS011;6522;49.622;6.126;2023-02-04T07:42:06;4.03;;;2.42;;
12908;SDS011;6522;49.622;6.126;2023-02-04T07:44:53;2.72;;;1.92;;
12908;SDS011;6522;49.622;6.126;2023-02-04T07:47:39;2.05;;;1.85;;
12908;SDS011;6522;49.622;6.126;2023-02-04T07:50:27;2.75;;;2.28;;
12908;SDS011;6522;49.622;6.126;2023-02-04T07:53:13;4.70;;;2.28;;
12908;SDS011;6522;49.622;6.126;2023-02-04T07:56:00;1.75;;;1.40;;
12908;SDS011;6522;49.622;6.126;2023-02-04T07:58:48;1.73;;;1.62;;
12908;SDS011;6522;49.622;6.126;2023-02-04T08:01:35;8.20;;;3.05;;
12908;SDS011;6522;49.622;6.126;2023-02-04T08:04:22;3.62;;;1.90;;
12908;SDS011;6522;49.622;6.126;2023-02-04T08:07:08;2.25;;;1.70;;
12908;SDS011;6522;49.622;6.126;2023-02-04T08:09:55;2.87;;;2.30;;
12908;SDS011;6522;49.622;6.126;2023-02-04T08:12:42;2.12;;;1.77;;
12908;SDS011;6522;49.622;6.126;2023-02-04T08:15:29;4.53;;;2.30;;
12908;SDS011;6522;49.622;6.126;2023-02-04T08:18:15;3.12;;;1.98;;
12908;SDS011;6522;49.622;6.126;2023-02-04T08:21:02;3.10;;;2.17;;
12908;SDS011;6522;49.622;6.126;2023-02-04T08:23:49;2.65;;;1.20;;
12908;SDS011;6522;49.622;6.126;2023-02-04T08:26:36;3.15;;;2.05;;
12908;SDS011;6522;49.622;6.126;2023-02-04T08:29:23;4.37;;;2.47;;
12908;SDS011;6522;49.622;6.126;2023-02-04T08:32:10;3.22;;;1.85;;
12908;SDS011;6522;49.622;6.126;2023-02-04T08:34:57;3.47;;;1.83;;
12908;SDS011;6522;49.622;6.126;2023-02-04T08:37:44;2.37;;;1.95;;
12908;SDS011;6522;49.622;6.126;2023-02-04T08:40:30;2.65;;;1.85;;
12908;SDS011;6522;49.622;6.126;2023-02-04T08:43:17;2.80;;;1.77;;
12908;SDS011;6522;49.622;6.126;2023-02-04T08:46:04;3.30;;;1.87;;
12908;SDS011;6522;49.622;6.126;2023-02-04T08:48:51;2.78;;;1.90;;
12908;SDS011;6522;49.622;6.126;2023-02-04T08:51:37;2.70;;;1.50;;
12908;SDS011;6522;49.622;6.126;2023-02-04T08:54:24;4.47;;;1.83;;
12908;SDS011;6522;49.622;6.126;2023-02-04T08:57:11;2.40;;;2.20;;
12908;SDS011;6522;49.622;6.126;2023-02-04T08:59:58;2.30;;;1.67;;
12908;SDS011;6522;49.622;6.126;2023-02-04T09:02:44;7.60;;;2.22;;
12908;SDS011;6522;49.622;6.126;2023-02-04T09:05:31;5.32;;;2.80;;
12908;SDS011;6522;49.622;6.126;2023-02-04T09:08:18;3.92;;;2.35;;
12908;SDS011;6522;49.622;6.126;2023-02-04T09:11:05;10.80;;;3.05;;
12908;SDS011;6522;49.622;6.126;2023-02-04T09:13:52;6.47;;;3.10;;
12908;SDS011;6522;49.622;6.126;2023-02-04T09:16:38;6.60;;;3.28;;
12908;SDS011;6522;49.622;6.126;2023-02-04T09:19:25;5.97;;;3.37;;
12908;SDS011;6522;49.622;6.126;2023-02-04T09:22:11;7.75;;;3.25;;
12908;SDS011;6522;49.622;6.126;2023-02-04T09:24:58;4.30;;;3.12;;
12908;SDS011;6522;49.622;6.126;2023-02-04T09:27:45;4.15;;;3.20;;
12908;SDS011;6522;49.622;6.126;2023-02-04T09:30:31;4.28;;;3.60;;
12908;SDS011;6522;49.622;6.126;2023-02-04T09:33:18;11.93;;;3.70;;
12908;SDS011;6522;49.622;6.126;2023-02-04T09:36:04;7.00;;;4.10;;
12908;SDS011;6522;49.622;6.126;2023-02-04T09:38:51;5.95;;;4.15;;
12908;SDS011;6522;49.622;6.126;2023-02-04T09:41:38;6.00;;;5.12;;
12908;SDS011;6522;49.622;6.126;2023-02-04T09:44:25;6.32;;;5.72;;
12908;SDS011;6522;49.622;6.126;2023-02-04T09:47:12;9.32;;;5.57;;
12908;SDS011;6522;49.622;6.126;2023-02-04T09:49:58;9.30;;;5.90;;
12908;SDS011;6522;49.622;6.126;2023-02-04T09:52:45;11.32;;;5.47;;
12908;SDS011;6522;49.622;6.126;2023-02-04T09:55:36;7.68;;;5.82;;
12908;SDS011;6522;49.622;6.126;2023-02-04T09:58:22;6.55;;;5.80;;
12908;SDS011;6522;49.622;6.126;2023-02-04T10:01:18;12.13;;;7.18;;
12908;SDS011;6522;49.622;6.126;2023-02-04T10:03:55;8.15;;;5.90;;
12908;SDS011;6522;49.622;6.126;2023-02-04T10:06:42;9.23;;;8.40;;
12908;SDS011;6522;49.622;6.126;2023-02-04T10:09:28;10.90;;;8.30;;
12908;SDS011;6522;49.622;6.126;2023-02-04T10:12:15;8.30;;;6.00;;
12908;SDS011;6522;49.622;6.126;2023-02-04T10:15:02;10.10;;;9.48;;
12908;SDS011;6522;49.622;6.126;2023-02-04T10:17:50;10.30;;;9.40;;
12908;SDS011;6522;49.622;6.126;2023-02-04T10:20:35;11.05;;;10.15;;
12908;SDS011;6522;49.622;6.126;2023-02-04T10:23:22;11.70;;;7.82;;
12908;SDS011;6522;49.622;6.126;2023-02-04T10:26:13;11.50;;;10.77;;
12908;SDS011;6522;49.622;6.126;2023-02-04T10:28:57;12.37;;;11.30;;
12908;SDS011;6522;49.622;6.126;2023-02-04T10:31:44;12.52;;;11.52;;
12908;SDS011;6522;49.622;6.126;2023-02-04T10:34:34;12.20;;;11.35;;
12908;SDS011;6522;49.622;6.126;2023-02-04T10:37:20;10.82;;;8.55;;
12908;SDS011;6522;49.622;6.126;2023-02-04T10:40:23;12.77;;;11.75;;
12908;SDS011;6522;49.622;6.126;2023-02-04T10:42:53;10.70;;;9.90;;
12908;SDS011;6522;49.622;6.126;2023-02-04T10:45:43;12.73;;;11.70;;
12908;SDS011;6522;49.622;6.126;2023-02-04T10:48:27;11.77;;;11.23;;
12908;SDS011;6522;49.622;6.126;2023-02-04T10:51:13;12.95;;;11.90;;
12908;SDS011;6522;49.622;6.126;2023-02-04T10:54:00;13.10;;;11.90;;
12908;SDS011;6522;49.622;6.126;2023-02-04T10:57:22;12.52;;;11.63;;
12908;SDS011;6522;49.622;6.126;2023-02-04T11:00:15;12.73;;;10.75;;
12908;SDS011;6522;49.622;6.126;2023-02-04T11:03:00;12.80;;;11.90;;
12908;SDS011;6522;49.622;6.126;2023-02-04T11:05:45;12.63;;;11.85;;
12908;SDS011;6522;49.622;6.126;2023-02-04T11:08:33;12.48;;;11.63;;
12908;SDS011;6522;49.622;6.126;2023-02-04T11:11:23;12.60;;;11.50;;
12908;SDS011;6522;49.622;6.126;2023-02-04T11:14:28;12.50;;;11.30;;
12908;SDS011;6522;49.622;6.126;2023-02-04T11:17:18;13.48;;;12.32;;
12908;SDS011;6522;49.622;6.126;2023-02-04T11:19:58;12.95;;;12.05;;
12908;SDS011;6522;49.622;6.126;2023-02-04T11:22:47;12.88;;;11.85;;
12908;SDS011;6522;49.622;6.126;2023-02-04T11:25:35;12.23;;;11.30;;
12908;SDS011;6522;49.622;6.126;2023-02-04T11:28:25;10.85;;;8.40;;
12908;SDS011;6522;49.622;6.126;2023-02-04T11:39:47;12.70;;;11.63;;
12908;SDS011;6522;49.622;6.126;2023-02-04T11:42:38;12.80;;;12.00;;
12908;SDS011;6522;49.622;6.126;2023-02-04T11:45:25;12.18;;;11.27;;
12908;SDS011;6522;49.622;6.126;2023-02-04T11:48:17;12.25;;;11.25;;
12908;SDS011;6522;49.622;6.126;2023-02-04T11:51:09;12.20;;;11.52;;
12908;SDS011;6522;49.622;6.126;2023-02-04T11:53:50;10.07;;;9.27;;
12908;SDS011;6522;49.622;6.126;2023-02-04T11:56:37;12.50;;;11.90;;
12908;SDS011;6522;49.622;6.126;2023-02-04T11:59:24;10.60;;;9.50;;
12908;SDS011;6522;49.622;6.126;2023-02-04T12:02:17;12.90;;;12.10;;
12908;SDS011;6522;49.622;6.126;2023-02-04T12:05:11;12.57;;;11.75;;
12908;SDS011;6522;49.622;6.126;2023-02-04T12:07:56;13.48;;;12.48;;
12908;SDS011;6522;49.622;6.126;2023-02-04T12:10:46;13.75;;;12.68;;
12908;SDS011;6522;49.622;6.126;2023-02-04T12:13:29;13.32;;;12.30;;
12908;SDS011;6522;49.622;6.126;2023-02-04T12:16:16;13.30;;;12.40;;
12908;SDS011;6522;49.622;6.126;2023-02-04T12:19:03;13.23;;;11.93;;
12908;SDS011;6522;49.622;6.126;2023-02-04T12:21:49;13.62;;;12.40;;
12908;SDS011;6522;49.622;6.126;2023-02-04T12:24:36;13.00;;;12.00;;
12908;SDS011;6522;49.622;6.126;2023-02-04T12:27:23;13.10;;;12.30;;
12908;SDS011;6522;49.622;6.126;2023-02-04T12:30:11;13.57;;;12.50;;
12908;SDS011;6522;49.622;6.126;2023-02-04T12:32:57;14.38;;;12.98;;
12908;SDS011;6522;49.622;6.126;2023-02-04T12:35:44;13.43;;;12.52;;
12908;SDS011;6522;49.622;6.126;2023-02-04T12:38:31;13.98;;;13.02;;
12908;SDS011;6522;49.622;6.126;2023-02-04T12:41:17;13.90;;;13.00;;
12908;SDS011;6522;49.622;6.126;2023-02-04T12:44:04;13.80;;;12.70;;
12908;SDS011;6522;49.622;6.126;2023-02-04T12:46:51;14.07;;;12.90;;
12908;SDS011;6522;49.622;6.126;2023-02-04T12:49:38;13.05;;;12.25;;
12908;SDS011;6522;49.622;6.126;2023-02-04T12:52:25;13.50;;;12.50;;
12908;SDS011;6522;49.622;6.126;2023-02-04T12:55:12;13.15;;;12.20;;
12908;SDS011;6522;49.622;6.126;2023-02-04T12:57:58;13.30;;;12.40;;
12908;SDS011;6522;49.622;6.126;2023-02-04T13:00:45;11.32;;;10.23;;
12908;SDS011;6522;49.622;6.126;2023-02-04T13:03:32;13.00;;;12.30;;
12908;SDS011;6522;49.622;6.126;2023-02-04T13:06:19;13.70;;;13.00;;
12908;SDS011;6522;49.622;6.126;2023-02-04T13:09:06;14.30;;;13.20;;
12908;SDS011;6522;49.622;6.126;2023-02-04T13:11:53;15.10;;;13.65;;
12908;SDS011;6522;49.622;6.126;2023-02-04T13:14:40;11.95;;;11.30;;
12908;SDS011;6522;49.622;6.126;2023-02-04T13:17:26;15.30;;;14.50;;
12908;SDS011;6522;49.622;6.126;2023-02-04T13:20:13;15.25;;;14.15;;
12908;SDS011;6522;49.622;6.126;2023-02-04T13:23:00;14.77;;;13.88;;
12908;SDS011;6522;49.622;6.126;2023-02-04T13:25:46;15.23;;;14.32;;
12908;SDS011;6522;49.622;6.126;2023-02-04T13:28:33;14.57;;;13.48;;
12908;SDS011;6522;49.622;6.126;2023-02-04T13:31:20;14.07;;;13.25;;
12908;SDS011;6522;49.622;6.126;2023-02-04T13:34:07;14.95;;;13.95;;
12908;SDS011;6522;49.622;6.126;2023-02-04T13:36:53;14.65;;;13.75;;
12908;SDS011;6522;49.622;6.126;2023-02-04T13:39:40;14.45;;;13.32;;
12908;SDS011;6522;49.622;6.126;2023-02-04T13:42:27;13.10;;;11.98;;
12908;SDS011;6522;49.622;6.126;2023-02-04T13:45:15;15.68;;;14.43;;
12908;SDS011;6522;49.622;6.126;2023-02-04T13:48:00;15.75;;;14.27;;
12908;SDS011;6522;49.622;6.126;2023-02-04T13:50:47;15.13;;;14.10;;
12908;SDS011;6522;49.622;6.126;2023-02-04T13:53:34;14.93;;;14.23;;
12908;SDS011;6522;49.622;6.126;2023-02-04T13:56:21;15.55;;;14.57;;
12908;SDS011;6522;49.622;6.126;2023-02-04T13:59:07;13.75;;;13.13;;
12908;SDS011;6522;49.622;6.126;2023-02-04T14:01:54;14.23;;;13.40;;
12908;SDS011;6522;49.622;6.126;2023-02-04T14:04:41;15.93;;;14.85;;
12908;SDS011;6522;49.622;6.126;2023-02-04T14:07:28;14.70;;;13.90;;
12908;SDS011;6522;49.622;6.126;2023-02-04T14:10:15;14.50;;;13.70;;
12908;SDS011;6522;49.622;6.126;2023-02-04T14:13:01;13.80;;;13.20;;
12908;SDS011;6522;49.622;6.126;2023-02-04T14:15:48;14.75;;;13.75;;
12908;SDS011;6522;49.622;6.126;2023-02-04T14:18:35;15.02;;;13.90;;
12908;SDS011;6522;49.622;6.126;2023-02-04T14:21:21;14.75;;;13.60;;
12908;SDS011;6522;49.622;6.126;2023-02-04T14:24:08;15.50;;;14.70;;
12908;SDS011;6522;49.622;6.126;2023-02-04T14:26:55;15.43;;;14.18;;
12908;SDS011;6522;49.622;6.126;2023-02-04T14:29:41;16.65;;;15.48;;
12908;SDS011;6522;49.622;6.126;2023-02-04T14:32:28;15.13;;;14.23;;
12908;SDS011;6522;49.622;6.126;2023-02-04T14:35:14;16.40;;;15.10;;
12908;SDS011;6522;49.622;6.126;2023-02-04T14:38:01;15.32;;;14.43;;
12908;SDS011;6522;49.622;6.126;2023-02-04T14:40:48;15.40;;;14.50;;
12908;SDS011;6522;49.622;6.126;2023-02-04T14:43:35;16.35;;;14.98;;
12908;SDS011;6522;49.622;6.126;2023-02-04T14:46:22;16.83;;;15.65;;
12908;SDS011;6522;49.622;6.126;2023-02-04T14:49:09;16.00;;;15.00;;
12908;SDS011;6522;49.622;6.126;2023-02-04T14:51:56;15.43;;;14.73;;
12908;SDS011;6522;49.622;6.126;2023-02-04T14:54:42;15.98;;;15.10;;
12908;SDS011;6522;49.622;6.126;2023-02-04T14:57:29;15.15;;;14.45;;
12908;SDS011;6522;49.622;6.126;2023-02-04T15:00:16;16.35;;;15.05;;
12908;SDS011;6522;49.622;6.126;2023-02-04T15:03:03;15.93;;;15.10;;
12908;SDS011;6522;49.622;6.126;2023-02-04T15:05:50;15.50;;;14.70;;
12908;SDS011;6522;49.622;6.126;2023-02-04T15:08:37;13.85;;;12.88;;
12908;SDS011;6522;49.622;6.126;2023-02-04T15:11:24;16.15;;;14.98;;
12908;SDS011;6522;49.622;6.126;2023-02-04T15:14:11;15.48;;;14.77;;
12908;SDS011;6522;49.622;6.126;2023-02-04T15:16:57;16.20;;;15.10;;
12908;SDS011;6522;49.622;6.126;2023-02-04T15:19:44;16.45;;;15.18;;
12908;SDS011;6522;49.622;6.126;2023-02-04T15:22:31;15.40;;;14.38;;
12908;SDS011;6522;49.622;6.126;2023-02-04T15:25:17;16.00;;;15.07;;
12908;SDS011;6522;49.622;6.126;2023-02-04T15:28:04;14.90;;;14.20;;
12908;SDS011;6522;49.622;6.126;2023-02-04T15:30:51;14.40;;;13.70;;
12908;SDS011;6522;49.622;6.126;2023-02-04T15:33:38;14.80;;;13.95;;
12908;SDS011;6522;49.622;6.126;2023-02-04T15:36:24;14.18;;;13.35;;
12908;SDS011;6522;49.622;6.126;2023-02-04T15:39:11;14.73;;;13.50;;
12908;SDS011;6522;49.622;6.126;2023-02-04T15:41:58;14.93;;;13.93;;
12908;SDS011;6522;49.622;6.126;2023-02-04T15:44:45;15.02;;;14.10;;
12908;SDS011;6522;49.622;6.126;2023-02-04T15:47:32;14.60;;;13.70;;
12908;SDS011;6522;49.622;6.126;2023-02-04T15:50:19;11.23;;;10.30;;
12908;SDS011;6522;49.622;6.126;2023-02-04T15:53:06;16.08;;;14.87;;
12908;SDS011;6522;49.622;6.126;2023-02-04T15:55:52;12.10;;;10.90;;
12908;SDS011;6522;49.622;6.126;2023-02-04T15:58:39;14.93;;;13.80;;
12908;SDS011;6522;49.622;6.126;2023-02-04T16:01:26;14.70;;;13.50;;
12908;SDS011;6522;49.622;6.126;2023-02-04T16:04:12;14.55;;;13.75;;
12908;SDS011;6522;49.622;6.126;2023-02-04T16:07:00;14.10;;;13.00;;
12908;SDS011;6522;49.622;6.126;2023-02-04T16:09:47;13.80;;;12.90;;
12908;SDS011;6522;49.622;6.126;2023-02-04T16:12:33;14.15;;;13.15;;
12908;SDS011;6522;49.622;6.126;2023-02-04T16:15:20;14.90;;;14.10;;
12908;SDS011;6522;49.622;6.126;2023-02-04T16:18:07;14.40;;;13.55;;
12908;SDS011;6522;49.622;6.126;2023-02-04T16:20:54;14.18;;;13.25;;
12908;SDS011;6522;49.622;6.126;2023-02-04T16:23:41;13.07;;;12.37;;
12908;SDS011;6522;49.622;6.126;2023-02-04T16:26:28;13.60;;;12.48;;
12908;SDS011;6522;49.622;6.126;2023-02-04T16:29:15;12.98;;;12.00;;
12908;SDS011;6522;49.622;6.126;2023-02-04T16:32:01;12.48;;;11.57;;
12908;SDS011;6522;49.622;6.126;2023-02-04T16:34:48;12.60;;;11.60;;
12908;SDS011;6522;49.622;6.126;2023-02-04T16:37:35;13.13;;;12.15;;
12908;SDS011;6522;49.622;6.126;2023-02-04T16:40:22;13.15;;;11.80;;
12908;SDS011;6522;49.622;6.126;2023-02-04T16:43:09;13.27;;;12.35;;
12908;SDS011;6522;49.622;6.126;2023-02-04T16:45:56;13.00;;;12.00;;
12908;SDS011;6522;49.622;6.126;2023-02-04T16:48:42;13.85;;;12.55;;
12908;SDS011;6522;49.622;6.126;2023-02-04T16:51:29;14.15;;;12.95;;
12908;SDS011;6522;49.622;6.126;2023-02-04T16:54:16;12.50;;;11.80;;
12908;SDS011;6522;49.622;6.126;2023-02-04T16:57:02;12.73;;;11.65;;